Time;durP1;ratioP1;P1;durP2;ratioP2;P2;SDS_P1;SDS_P2;PMS_P1;PMS_P2;Temp;Humidity;BMP_temperature;BMP_pressure;BME280_temperature;BME280_humidity;BME280_pressure;Samples;Min_cycle;Max_cycle;Signal;HPM_P1;HPM_P2
2022/08/01 00:00:02;;;;;;;;;;;;;;;;;;4926553;29;20394;-74
2022/08/01 00:02:31;;;;;;;;;;;;;;;;;;4928314;29;19927;-74
2022/08/01 00:04:59;;;;;;;;;;;;;;;;;;4928038;29;19931;-75
2022/08/01 00:07:27;;;;;;;;;;;;;;;;;;4928566;29;19931;-74
2022/08/01 00:09:54;;;;;;;;;;;;;;;;;;4927553;29;20042;-75
2022/08/01 00:12:21;;;;;;;;;;;;;;;;;;4925955;29;19927;-74
2022/08/01 00:14:49;;;;;;;;;;;;;;;;;;4924782;29;20613;-74
2022/08/01 00:17:16;;;;;;;;;;;;;;;;;;4927633;29;19934;-74
2022/08/01 00:19:43;;;;;;;;;;;;;;;;;;4930431;29;19927;-74
2022/08/01 00:22:10;;;;;;;;;;;;;;;;;;4931659;29;19930;-74
2022/08/01 00:24:38;;;;;;;;;;;;;;;;;;4926575;29;19938;-72
2022/08/01 00:27:05;;;;;;;;;;;;;;;;;;4927965;29;19931;-73
2022/08/01 00:29:32;;;;;;;;;;;;;;;;;;4925993;29;20128;-73
2022/08/01 00:32:19;;;;;;;;;;;;;;;;;;4925929;29;19974;-74
2022/08/01 00:34:47;;;;;;;;;;;;;;;;;;4930827;29;20306;-74
2022/08/01 00:37:14;;;;;;;;;;;;;;;;;;4929202;29;19938;-73
2022/08/01 00:39:42;;;;;;;;;;;;;;;;;;4928888;29;19962;-73
2022/08/01 00:42:09;;;;;;;;;;;;;;;;;;4926903;29;19931;-74
2022/08/01 00:44:36;;;;;;;;;;;;;;;;;;4928650;29;20037;-74
2022/08/01 00:47:04;;;;;;;;;;;;;;;;;;4910969;29;19986;-73
2022/08/01 00:49:31;;;;;;;;;;;;;;;;;;4911965;29;20604;-72
2022/08/01 00:51:58;;;;;;;;;;;;;;;;;;4929889;29;19927;-74
2022/08/01 00:54:25;;;;;;;;;;;;;;;;;;4927525;29;19938;-75
2022/08/01 00:56:53;;;;;;;;;;;;;;;;;;4982273;23;19980;-75
2022/08/01 00:59:20;;;;;;;;;;;;;;;;;;4965552;28;20549;-74
2022/08/01 01:01:47;;;;;;;;;;;;;;;;;;4966398;28;20405;-73
2022/08/01 01:04:16;;;;;;;;;;;;;;;;;;4961192;28;19930;-73
2022/08/01 01:06:43;;;;;;;;;;;;;;;;;;4944993;28;19926;-74
2022/08/01 01:09:10;;;;;;;;;;;;;;;;;;4961721;28;19937;-74
2022/08/01 01:11:37;;;;;;;;;;;;;;;;;;4967899;28;19973;-73
2022/08/01 01:14:05;;;;;;;;;;;;;;;;;;4968616;28;19930;-74
2022/08/01 01:16:32;;;;;;;;;;;;;;;;;;4949928;28;20468;-75
2022/08/01 01:18:59;;;;;;;;;;;;;;;;;;4967292;28;19981;-76
2022/08/01 01:21:26;;;;;;;;;;;;;;;;;;4968174;28;19934;-74
2022/08/01 01:23:54;;;;;;;;;;;;;;;;;;4967864;28;20297;-75
2022/08/01 01:26:21;;;;;;;;;;;;;;;;;;4966554;28;19934;-74
2022/08/01 01:28:51;;;;;;;;;;;;;;;;;;4930195;28;19958;-75
2022/08/01 01:31:18;;;;;;;;;;;;;;;;;;4932152;29;19930;-76
2022/08/01 01:33:45;;;;;;;;;;;;;;;;;;4948486;28;19988;-75
2022/08/01 01:36:13;;;;;;;;;;;;;;;;;;4954124;28;20045;-76
2022/08/01 01:38:43;;;;;;;;;;;;;;;;;;4961052;28;20024;-76
2022/08/01 01:41:11;;;;;;;;;;;;;;;;;;4962378;28;19933;-74
2022/08/01 01:43:38;;;;;;;;;;;;;;;;;;4958827;28;19956;-76
2022/08/01 01:46:05;;;;;;;;;;;;;;;;;;4958290;28;20012;-74
2022/08/01 01:48:32;;;;;;;;;;;;;;;;;;4966350;28;19926;-75
2022/08/01 01:51:00;;;;;;;;;;;;;;;;;;4967546;28;20441;-75
2022/08/01 01:53:27;;;;;;;;;;;;;;;;;;4967715;28;19999;-75
2022/08/01 01:55:54;;;;;;;;;;;;;;;;;;4904909;28;1760013;-76
2022/08/01 01:58:21;;;;;;;;;;;;;;;;;;4966218;28;20536;-75
2022/08/01 02:00:49;;;;;;;;;;;;;;;;;;4968613;28;20437;-75
2022/08/01 02:03:17;;;;;;;;;;;;;;;;;;4967470;28;19934;-75
2022/08/01 02:05:44;;;;;;;;;;;;;;;;;;4968205;28;20343;-75
2022/08/01 02:08:12;;;;;;;;;;;;;;;;;;4950786;28;20397;-76
2022/08/01 02:10:39;;;;;;;;;;;;;;;;;;4968274;28;19972;-76
2022/08/01 02:13:07;;;;;;;;;;;;;;;;;;4966391;28;19930;-75
2022/08/01 02:15:34;;;;;;;;;;;;;;;;;;4966071;28;19933;-76
2022/08/01 02:18:02;;;;;;;;;;;;;;;;;;4966248;28;19930;-75
2022/08/01 02:20:29;;;;;;;;;;;;;;;;;;4956365;28;20374;-75
2022/08/01 02:22:57;;;;;;;;;;;;;;;;;;4968052;28;19930;-76
2022/08/01 02:25:24;;;;;;;;;;;;;;;;;;4967453;28;19926;-75
2022/08/01 02:27:51;;;;;;;;;;;;;;;;;;4967207;28;19937;-74
2022/08/01 02:30:19;;;;;;;;;;;;;;;;;;4968056;28;20400;-76
2022/08/01 02:32:46;;;;;;;;;;;;;;;;;;4967815;28;20041;-75
2022/08/01 02:35:13;;;;;;;;;;;;;;;;;;4964828;28;20025;-76
2022/08/01 02:37:40;;;;;;;;;;;;;;;;;;4964346;28;19937;-75
2022/08/01 02:40:10;;;;;;;;;;;;;;;;;;4964366;28;19973;-75
2022/08/01 02:42:40;;;;;;;;;;;;;;;;;;4967489;28;19937;-76
2022/08/01 02:45:08;;;;;;;;;;;;;;;;;;4966936;28;19962;-75
2022/08/01 02:47:35;;;;;;;;;;;;;;;;;;4966983;28;19926;-76
2022/08/01 02:50:02;;;;;;;;;;;;;;;;;;4967518;28;20586;-75
2022/08/01 02:52:30;;;;;;;;;;;;;;;;;;4965671;28;19940;-76
2022/08/01 02:54:57;;;;;;;;;;;;;;;;;;4967366;28;19929;-75
2022/08/01 02:57:24;;;;;;;;;;;;;;;;;;4966025;28;20041;-76
2022/08/01 02:59:59;;;;;;;;;;;;;;;;;;4963171;28;19930;-75
2022/08/01 03:02:26;;;;;;;;;;;;;;;;;;4961964;28;19930;-75
2022/08/01 03:04:54;;;;;;;;;;;;;;;;;;4963612;28;19961;-75
2022/08/01 03:07:23;;;;;;;;;;;;;;;;;;4953964;28;20405;-76
2022/08/01 03:09:50;;;;;;;;;;;;;;;;;;4961214;28;19926;-75
2022/08/01 03:12:18;;;;;;;;;;;;;;;;;;4966391;28;19930;-76
2022/08/01 03:14:46;;;;;;;;;;;;;;;;;;4933270;28;19937;-76
2022/08/01 03:17:13;;;;;;;;;;;;;;;;;;4965807;28;19934;-76
2022/08/01 03:19:42;;;;;;;;;;;;;;;;;;4965770;28;19928;-75
2022/08/01 03:22:09;;;;;;;;;;;;;;;;;;4964842;28;19969;-75
2022/08/01 03:24:36;;;;;;;;;;;;;;;;;;4966254;28;20049;-75
2022/08/01 03:27:03;;;;;;;;;;;;;;;;;;4965407;28;19965;-76
2022/08/01 03:29:31;;;;;;;;;;;;;;;;;;4965915;28;19930;-76
2022/08/01 03:31:58;;;;;;;;;;;;;;;;;;4963210;28;19952;-76
2022/08/01 03:34:27;;;;;;;;;;;;;;;;;;4963407;28;20397;-75
2022/08/01 03:36:54;;;;;;;;;;;;;;;;;;4929053;28;19952;-74
2022/08/01 03:39:21;;;;;;;;;;;;;;;;;;4960927;28;19933;-75
2022/08/01 03:41:49;;;;;;;;;;;;;;;;;;4966244;28;20358;-74
2022/08/01 03:44:21;;;;;;;;;;;;;;;;;;4966260;28;19933;-74
2022/08/01 03:46:48;;;;;;;;;;;;;;;;;;4965818;28;20513;-74
2022/08/01 03:49:15;;;;;;;;;;;;;;;;;;4966087;28;19930;-74
2022/08/01 03:51:44;;;;;;;;;;;;;;;;;;4967061;28;19926;-74
2022/08/01 03:54:12;;;;;;;;;;;;;;;;;;4950843;28;20029;-75
2022/08/01 03:56:39;;;;;;;;;;;;;;;;;;4963968;28;19940;-74
2022/08/01 03:59:06;;;;;;;;;;;;;;;;;;4967077;28;19984;-75
2022/08/01 04:01:33;;;;;;;;;;;;;;;;;;4970305;28;19930;-74
2022/08/01 04:04:01;;;;;;;;;;;;;;;;;;4969825;28;19926;-75
2022/08/01 04:06:29;;;;;;;;;;;;;;;;;;4970850;28;20409;-76
2022/08/01 04:08:56;;;;;;;;;;;;;;;;;;4968183;28;19941;-75
2022/08/01 04:11:23;;;;;;;;;;;;;;;;;;4967878;28;20018;-74
2022/08/01 04:13:50;;;;;;;;;;;;;;;;;;4957073;28;19932;-76
2022/08/01 04:16:18;;;;;;;;;;;;;;;;;;4970115;28;20390;-75
2022/08/01 04:18:45;;;;;;;;;;;;;;;;;;4969278;28;19973;-76
2022/08/01 04:21:12;;;;;;;;;;;;;;;;;;4953244;28;19930;-76
2022/08/01 04:23:40;;;;;;;;;;;;;;;;;;4968886;28;19934;-75
2022/08/01 04:26:07;;;;;;;;;;;;;;;;;;4969607;28;20305;-76
2022/08/01 04:28:34;;;;;;;;;;;;;;;;;;4969854;28;19941;-75
2022/08/01 04:31:01;;;;;;;;;;;;;;;;;;4970381;28;20695;-76
2022/08/01 04:33:29;;;;;;;;;;;;;;;;;;4970662;28;19969;-76
2022/08/01 04:35:56;;;;;;;;;;;;;;;;;;4970450;28;19952;-76
2022/08/01 04:38:29;;;;;;;;;;;;;;;;;;4969724;28;20027;-76
2022/08/01 04:40:56;;;;;;;;;;;;;;;;;;4968223;28;19933;-76
2022/08/01 04:43:23;;;;;;;;;;;;;;;;;;4967717;28;20759;-76
2022/08/01 04:45:51;;;;;;;;;;;;;;;;;;4970555;28;19937;-76
2022/08/01 04:48:21;;;;;;;;;;;;;;;;;;4970005;28;19929;-75
2022/08/01 04:50:48;;;;;;;;;;;;;;;;;;4972053;28;19933;-76
2022/08/01 04:53:16;;;;;;;;;;;;;;;;;;4949793;28;20397;-76
2022/08/01 04:55:43;;;;;;;;;;;;;;;;;;4962153;28;20397;-76
2022/08/01 04:58:11;;;;;;;;;;;;;;;;;;4949165;28;19937;-74
2022/08/01 05:00:42;;;;;;;;;;;;;;;;;;4948448;28;19936;-74
2022/08/01 05:03:09;;;;;;;;;;;;;;;;;;4965964;28;19953;-75
2022/08/01 05:05:36;;;;;;;;;;;;;;;;;;4968960;28;20312;-75
2022/08/01 05:08:05;;;;;;;;;;;;;;;;;;4965157;28;19998;-75
2022/08/01 05:10:33;;;;;;;;;;;;;;;;;;4962221;28;19966;-76
2022/08/01 05:13:00;;;;;;;;;;;;;;;;;;4965112;28;19945;-75
2022/08/01 05:15:27;;;;;;;;;;;;;;;;;;4967853;28;20317;-76
2022/08/01 05:17:54;;;;;;;;;;;;;;;;;;4952046;28;19930;-76
2022/08/01 05:20:22;;;;;;;;;;;;;;;;;;4948563;28;19930;-76
2022/08/01 05:22:49;;;;;;;;;;;;;;;;;;4952592;28;19938;-76
2022/08/01 05:25:16;;;;;;;;;;;;;;;;;;4966817;28;19926;-76
2022/08/01 05:27:46;;;;;;;;;;;;;;;;;;4965528;28;19933;-77
2022/08/01 05:30:15;;;;;;;;;;;;;;;;;;4962801;28;20374;-76
2022/08/01 05:32:42;;;;;;;;;;;;;;;;;;4963129;28;19926;-77
2022/08/01 05:35:09;;;;;;;;;;;;;;;;;;4966852;28;19934;-77
2022/08/01 05:37:36;;;;;;;;;;;;;;;;;;4964912;28;19926;-76
2022/08/01 05:40:04;;;;;;;;;;;;;;;;;;4951815;28;19937;-77
2022/08/01 05:42:31;;;;;;;;;;;;;;;;;;4967325;28;19969;-75
2022/08/01 05:44:58;;;;;;;;;;;;;;;;;;4968933;28;19930;-76
2022/08/01 05:47:25;;;;;;;;;;;;;;;;;;4949169;28;20700;-76
2022/08/01 05:49:53;;;;;;;;;;;;;;;;;;4967884;28;20029;-75
2022/08/01 05:52:20;;;;;;;;;;;;;;;;;;4968267;28;19934;-75
2022/08/01 05:54:47;;;;;;;;;;;;;;;;;;4965708;28;19926;-75
2022/08/01 05:57:14;;;;;;;;;;;;;;;;;;4968363;28;19938;-75
2022/08/01 05:59:42;;;;;;;;;;;;;;;;;;4959527;28;19927;-75
2022/08/01 06:02:09;;;;;;;;;;;;;;;;;;4947007;28;20305;-75
2022/08/01 06:04:37;;;;;;;;;;;;;;;;;;4965613;28;20113;-75
2022/08/01 06:07:04;;;;;;;;;;;;;;;;;;4949649;28;19926;-76
2022/08/01 06:09:31;;;;;;;;;;;;;;;;;;4966517;28;19938;-75
2022/08/01 06:11:58;;;;;;;;;;;;;;;;;;4964219;28;19930;-75
2022/08/01 06:14:26;;;;;;;;;;;;;;;;;;4959962;28;19926;-76
2022/08/01 06:16:53;;;;;;;;;;;;;;;;;;4963184;28;19984;-74
2022/08/01 06:19:20;;;;;;;;;;;;;;;;;;4936077;28;20546;-75
2022/08/01 06:21:47;;;;;;;;;;;;;;;;;;4966309;28;19930;-75
2022/08/01 06:24:15;;;;;;;;;;;;;;;;;;4964396;28;19972;-76
2022/08/01 06:26:42;;;;;;;;;;;;;;;;;;4966270;28;19926;-76
2022/08/01 06:29:09;;;;;;;;;;;;;;;;;;4966274;28;20057;-75
2022/08/01 06:31:36;;;;;;;;;;;;;;;;;;4966284;28;19941;-74
2022/08/01 06:34:04;;;;;;;;;;;;;;;;;;4959859;28;19934;-75
2022/08/01 06:36:31;;;;;;;;;;;;;;;;;;4962035;28;19927;-74
2022/08/01 06:38:58;;;;;;;;;;;;;;;;;;4960991;28;19930;-74
2022/08/01 06:41:25;;;;;;;;;;;;;;;;;;4958933;28;19953;-74
2022/08/01 06:43:53;;;;;;;;;;;;;;;;;;4961891;28;19934;-75
2022/08/01 06:46:20;;;;;;;;;;;;;;;;;;4941607;28;19940;-75
2022/08/01 06:48:47;;;;;;;;;;;;;;;;;;4962280;28;21913;-75
2022/08/01 06:51:17;;;;;;;;;;;;;;;;;;4937202;28;19934;-74
2022/08/01 06:53:45;;;;;;;;;;;;;;;;;;4957098;28;20024;-75
2022/08/01 06:56:12;;;;;;;;;;;;;;;;;;4969174;23;22495;-69
2022/08/01 06:58:39;;;;;;;;;;;;;;;;;;4960685;28;19941;-70
2022/08/01 07:01:07;;;;;;;;;;;;;;;;;;4959573;28;20012;-70
2022/08/01 07:03:34;;;;;;;;;;;;;;;;;;4965365;28;19938;-69
2022/08/01 07:06:10;;;;;;;;;;;;;;;;;;4962734;28;19933;-70
2022/08/01 07:08:37;;;;;;;;;;;;;;;;;;4965007;28;19930;-70
2022/08/01 07:11:05;;;;;;;;;;;;;;;;;;4963274;28;19934;-70
2022/08/01 07:13:33;;;;;;;;;;;;;;;;;;4967481;28;19926;-70
2022/08/01 07:16:09;;;;;;;;;;;;;;;;;;4965127;28;19930;-70
2022/08/01 07:18:36;;;;;;;;;;;;;;;;;;4964065;28;20266;-70
2022/08/01 07:21:04;;;;;;;;;;;;;;;;;;4964803;28;20045;-70
2022/08/01 07:23:31;;;;;;;;;;;;;;;;;;4965974;28;19926;-70
2022/08/01 07:26:01;;;;;;;;;;;;;;;;;;4966628;28;19945;-70
2022/08/01 07:28:28;;;;;;;;;;;;;;;;;;4967006;28;19930;-70
2022/08/01 07:30:55;;;;;;;;;;;;;;;;;;4968029;28;19941;-70
2022/08/01 07:33:23;;;;;;;;;;;;;;;;;;4967362;28;19938;-70
2022/08/01 07:35:50;;;;;;;;;;;;;;;;;;4965459;28;20564;-70
2022/08/01 07:38:18;;;;;;;;;;;;;;;;;;4950216;28;19930;-69
2022/08/01 07:40:45;;;;;;;;;;;;;;;;;;4940853;28;20021;-70
2022/08/01 07:43:12;;;;;;;;;;;;;;;;;;4962101;28;19951;-70
2022/08/01 07:45:40;;;;;;;;;;;;;;;;;;4968502;28;20429;-70
2022/08/01 07:48:11;;;;;;;;;;;;;;;;;;4949200;28;20365;-70
2022/08/01 07:50:38;;;;;;;;;;;;;;;;;;4959565;28;20393;-70
2022/08/01 07:53:06;;;;;;;;;;;;;;;;;;4959837;28;20379;-70
2022/08/01 07:55:33;;;;;;;;;;;;;;;;;;4959787;28;19942;-70
2022/08/01 07:58:00;;;;;;;;;;;;;;;;;;4964549;28;19930;-71
2022/08/01 08:00:28;;;;;;;;;;;;;;;;;;4966851;28;19931;-71
2022/08/01 08:02:58;;;;;;;;;;;;;;;;;;4962566;28;19931;-71
2022/08/01 08:05:25;;;;;;;;;;;;;;;;;;4952111;28;19934;-71
2022/08/01 08:08:14;;;;;;;;;;;;;;;;;;4950762;28;19937;-70
2022/08/01 08:10:41;;;;;;;;;;;;;;;;;;4957399;28;19937;-71
2022/08/01 08:13:08;;;;;;;;;;;;;;;;;;4959847;28;19926;-71
2022/08/01 08:15:36;;;;;;;;;;;;;;;;;;4960598;28;20335;-71
2022/08/01 08:18:03;;;;;;;;;;;;;;;;;;4966234;28;20389;-71
2022/08/01 08:20:30;;;;;;;;;;;;;;;;;;4954969;28;20032;-72
2022/08/01 08:22:58;;;;;;;;;;;;;;;;;;4958194;28;19930;-71
2022/08/01 08:25:25;;;;;;;;;;;;;;;;;;4966677;28;19937;-71
2022/08/01 08:27:53;;;;;;;;;;;;;;;;;;4966433;28;19927;-72
2022/08/01 08:30:20;;;;;;;;;;;;;;;;;;4955643;28;20025;-71
2022/08/01 08:32:49;;;;;;;;;;;;;;;;;;4963547;28;19949;-71
2022/08/01 08:35:16;;;;;;;;;;;;;;;;;;4959578;28;19938;-71
2022/08/01 08:37:49;;;;;;;;;;;;;;;;;;4965363;28;19977;-71
2022/08/01 08:40:16;;;;;;;;;;;;;;;;;;4952166;28;19930;-71
2022/08/01 08:42:43;;;;;;;;;;;;;;;;;;4971589;28;20020;-71
2022/08/01 08:45:11;;;;;;;;;;;;;;;;;;4971033;28;20389;-71
2022/08/01 08:47:38;;;;;;;;;;;;;;;;;;4965307;28;19982;-71
2022/08/01 08:50:05;;;;;;;;;;;;;;;;;;4952282;28;20410;-71
2022/08/01 08:52:33;;;;;;;;;;;;;;;;;;4952230;29;20394;-71
2022/08/01 08:55:00;;;;;;;;;;;;;;;;;;4951825;28;19934;-71
2022/08/01 08:57:27;;;;;;;;;;;;;;;;;;4955116;28;19930;-71
2022/08/01 08:59:55;;;;;;;;;;;;;;;;;;4969744;28;19936;-72
2022/08/01 09:02:23;;;;;;;;;;;;;;;;;;4968753;28;19926;-72
2022/08/01 09:04:50;;;;;;;;;;;;;;;;;;4959847;28;19927;-71
2022/08/01 09:07:17;;;;;;;;;;;;;;;;;;4969535;28;20138;-71
2022/08/01 09:09:44;;;;;;;;;;;;;;;;;;4964438;28;19948;-71
2022/08/01 09:12:12;;;;;;;;;;;;;;;;;;4971242;28;20020;-71
2022/08/01 09:14:39;;;;;;;;;;;;;;;;;;4970885;28;19926;-72
2022/08/01 09:17:07;;;;;;;;;;;;;;;;;;4971114;28;19973;-71
2022/08/01 09:19:34;;;;;;;;;;;;;;;;;;4969558;28;19930;-71
2022/08/01 09:22:06;;;;;;;;;;;;;;;;;;4971795;28;19934;-71
2022/08/01 09:24:35;;;;;;;;;;;;;;;;;;4971150;28;20349;-71
2022/08/01 09:27:02;;;;;;;;;;;;;;;;;;4971730;28;19930;-71
2022/08/01 09:29:29;;;;;;;;;;;;;;;;;;4965088;28;20323;-71
2022/08/01 09:32:04;;;;;;;;;;;;;;;;;;4968276;28;19933;-71
2022/08/01 09:34:32;;;;;;;;;;;;;;;;;;4970608;28;20310;-70
2022/08/01 09:37:00;;;;;;;;;;;;;;;;;;4953473;28;19934;-69
2022/08/01 09:39:27;;;;;;;;;;;;;;;;;;4961822;28;19944;-70
2022/08/01 09:41:54;;;;;;;;;;;;;;;;;;4962942;28;20020;-70
2022/08/01 09:44:22;;;;;;;;;;;;;;;;;;4966871;28;20018;-70
2022/08/01 09:46:59;;;;;;;;;;;;;;;;;;4935762;28;19993;-72
2022/08/01 09:49:27;;;;;;;;;;;;;;;;;;4963689;28;19934;-70
2022/08/01 09:51:54;;;;;;;;;;;;;;;;;;4960170;28;19930;-69
2022/08/01 09:54:26;;;;;;;;;;;;;;;;;;4967019;28;20110;-70
2022/08/01 09:56:53;;;;;;;;;;;;;;;;;;4962165;28;19940;-70
2022/08/01 09:59:20;;;;;;;;;;;;;;;;;;4959326;28;19926;-70
2022/08/01 10:01:47;;;;;;;;;;;;;;;;;;4959530;28;20203;-70
2022/08/01 10:04:15;;;;;;;;;;;;;;;;;;4963418;28;19930;-70
2022/08/01 10:06:43;;;;;;;;;;;;;;;;;;4969152;28;19964;-70
2022/08/01 10:09:11;;;;;;;;;;;;;;;;;;4969080;28;19983;-70
2022/08/01 10:11:41;;;;;;;;;;;;;;;;;;4969842;28;19930;-70
2022/08/01 10:14:08;;;;;;;;;;;;;;;;;;4968803;28;20102;-70
2022/08/01 10:16:36;;;;;;;;;;;;;;;;;;4958598;28;19945;-71
2022/08/01 10:19:04;;;;;;;;;;;;;;;;;;4965972;28;19998;-71
2022/08/01 10:21:32;;;;;;;;;;;;;;;;;;4970002;28;19937;-70
2022/08/01 10:24:12;;;;;;;;;;;;;;;;;;4965627;28;19933;-71
2022/08/01 10:26:39;;;;;;;;;;;;;;;;;;4950766;28;20495;-71
2022/08/01 10:29:06;;;;;;;;;;;;;;;;;;4957075;28;19932;-70
2022/08/01 10:31:53;;;;;;;;;;;;;;;;;;4965768;28;19984;-72
2022/08/01 10:34:21;;;;;;;;;;;;;;;;;;4967344;28;19949;-71
2022/08/01 10:36:49;;;;;;;;;;;;;;;;;;4968434;28;20016;-71
2022/08/01 10:39:18;;;;;;;;;;;;;;;;;;4958903;28;20041;-70
2022/08/01 10:41:46;;;;;;;;;;;;;;;;;;4960884;28;19933;-70
2022/08/01 10:44:13;;;;;;;;;;;;;;;;;;4972598;28;19962;-71
2022/08/01 10:46:40;;;;;;;;;;;;;;;;;;4969595;28;20586;-70
2022/08/01 10:49:08;;;;;;;;;;;;;;;;;;4970347;28;19930;-71
2022/08/01 10:51:37;;;;;;;;;;;;;;;;;;4969659;28;19930;-70
2022/08/01 10:54:19;;;;;;;;;;;;;;;;;;4954472;28;20013;-70
2022/08/01 10:56:46;;;;;;;;;;;;;;;;;;4970877;28;20013;-70
2022/08/01 10:59:14;;;;;;;;;;;;;;;;;;4968618;28;20321;-70
2022/08/01 11:01:42;;;;;;;;;;;;;;;;;;4968066;28;19930;-72
2022/08/01 11:04:10;;;;;;;;;;;;;;;;;;4976685;28;20287;-71
2022/08/01 11:06:42;;;;;;;;;;;;;;;;;;4964332;28;19930;-70
2022/08/01 11:09:10;;;;;;;;;;;;;;;;;;4968585;28;19933;-70
2022/08/01 11:11:37;;;;;;;;;;;;;;;;;;4969965;28;20449;-71
2022/08/01 11:14:09;;;;;;;;;;;;;;;;;;4969919;28;19934;-71
2022/08/01 11:16:36;;;;;;;;;;;;;;;;;;4959948;28;19937;-71
2022/08/01 11:19:03;;;;;;;;;;;;;;;;;;4965913;28;19933;-71
2022/08/01 11:21:31;;;;;;;;;;;;;;;;;;4962884;28;19930;-71
2022/08/01 11:24:18;;;;;;;;;;;;;;;;;;4946322;28;19934;-71
2022/08/01 11:26:45;;;;;;;;;;;;;;;;;;4965027;28;19934;-71
2022/08/01 11:29:13;;;;;;;;;;;;;;;;;;4963842;28;19937;-71
2022/08/01 11:31:47;;;;;;;;;;;;;;;;;;4959119;28;20052;-71
2022/08/01 11:34:14;;;;;;;;;;;;;;;;;;4966673;28;19933;-71
2022/08/01 11:36:41;;;;;;;;;;;;;;;;;;4969562;28;19934;-70
2022/08/01 11:39:24;;;;;;;;;;;;;;;;;;4955814;28;19942;-70
2022/08/01 11:41:53;;;;;;;;;;;;;;;;;;4964094;28;19929;-71
2022/08/01 11:44:24;;;;;;;;;;;;;;;;;;4966872;28;19926;-71
2022/08/01 11:46:52;;;;;;;;;;;;;;;;;;4963410;28;19930;-71
2022/08/01 11:49:19;;;;;;;;;;;;;;;;;;4961652;28;19930;-69
2022/08/01 11:51:46;;;;;;;;;;;;;;;;;;4964631;28;20035;-70
2022/08/01 11:54:14;;;;;;;;;;;;;;;;;;4966934;28;20441;-71
2022/08/01 11:56:41;;;;;;;;;;;;;;;;;;4969117;28;20458;-70
2022/08/01 11:59:10;;;;;;;;;;;;;;;;;;4966279;28;20023;-70
2022/08/01 12:01:41;;;;;;;;;;;;;;;;;;4967359;28;19936;-70
2022/08/01 12:04:08;;;;;;;;;;;;;;;;;;4958192;28;19937;-70
2022/08/01 12:06:35;;;;;;;;;;;;;;;;;;4945365;28;20840;-70
2022/08/01 12:09:03;;;;;;;;;;;;;;;;;;4963427;28;19940;-71
2022/08/01 12:11:30;;;;;;;;;;;;;;;;;;4966326;28;19934;-70
2022/08/01 12:14:03;;;;;;;;;;;;;;;;;;4966706;28;20204;-70
2022/08/01 12:16:30;;;;;;;;;;;;;;;;;;4966322;28;19930;-70
2022/08/01 12:18:59;;;;;;;;;;;;;;;;;;4964902;28;19930;-69
2022/08/01 12:21:26;;;;;;;;;;;;;;;;;;4965186;28;20315;-71
2022/08/01 12:23:53;;;;;;;;;;;;;;;;;;4961067;28;19931;-69
2022/08/01 12:26:21;;;;;;;;;;;;;;;;;;4960265;28;20009;-71
2022/08/01 12:28:54;;;;;;;;;;;;;;;;;;4946019;28;19965;-70
2022/08/01 12:31:21;;;;;;;;;;;;;;;;;;4966419;28;19933;-70
2022/08/01 12:33:48;;;;;;;;;;;;;;;;;;4948039;28;19954;-69
2022/08/01 12:36:16;;;;;;;;;;;;;;;;;;4971673;28;19949;-70
2022/08/01 12:38:43;;;;;;;;;;;;;;;;;;4957152;28;19933;-70
2022/08/01 12:41:10;;;;;;;;;;;;;;;;;;4956430;28;20394;-69
2022/08/01 12:43:37;;;;;;;;;;;;;;;;;;4965888;28;19936;-70
2022/08/01 12:46:05;;;;;;;;;;;;;;;;;;4963795;28;19930;-70
2022/08/01 12:48:32;;;;;;;;;;;;;;;;;;4969792;28;19934;-71
2022/08/01 12:51:00;;;;;;;;;;;;;;;;;;4973345;28;19926;-70
2022/08/01 12:53:28;;;;;;;;;;;;;;;;;;4967577;28;19930;-71
2022/08/01 12:58:55;;;;;;;;;;;;;;;;;;4894647;29;20383;-76
2022/08/01 13:01:23;;;;;;;;;;;;;;;;;;4910439;29;19931;-76
2022/08/01 13:03:50;;;;;;;;;;;;;;;;;;4912390;29;19931;-76
2022/08/01 13:06:17;;;;;;;;;;;;;;;;;;4913172;29;19946;-76
2022/08/01 13:08:44;;;;;;;;;;;;;;;;;;4912957;29;19933;-75
2022/08/01 13:11:16;;;;;;;;;;;;;;;;;;4911440;29;19927;-76
2022/08/01 13:13:46;;;;;;;;;;;;;;;;;;4911172;29;19931;-75
2022/08/01 13:16:14;;;;;;;;;;;;;;;;;;4912907;29;20384;-74
2022/08/01 13:19:00;;;;;;;;;;;;;;;;;;4912296;29;20383;-73
2022/08/01 13:21:28;;;;;;;;;;;;;;;;;;4912124;29;20029;-74
2022/08/01 13:23:55;;;;;;;;;;;;;;;;;;4909369;29;19931;-75
2022/08/01 13:26:28;;;;;;;;;;;;;;;;;;4911446;29;19938;-73
2022/08/01 13:28:55;;;;;;;;;;;;;;;;;;4911184;29;20668;-75
2022/08/01 13:31:22;;;;;;;;;;;;;;;;;;4911880;29;19937;-77
2022/08/01 13:33:49;;;;;;;;;;;;;;;;;;4896220;29;19982;-75
2022/08/01 13:36:28;;;;;;;;;;;;;;;;;;4872750;29;19983;-77
2022/08/01 13:41:41;;;;;;;;;;;;;;;;;;4875959;29;19938;-75
2022/08/01 13:44:08;;;;;;;;;;;;;;;;;;4877600;29;19942;-77
2022/08/01 13:46:36;;;;;;;;;;;;;;;;;;4872278;29;20030;-76
2022/08/01 13:49:03;;;;;;;;;;;;;;;;;;4879301;29;19938;-77
2022/08/01 13:51:42;;;;;;;;;;;;;;;;;;4877793;29;20387;-77
2022/08/01 13:54:10;;;;;;;;;;;;;;;;;;4877695;29;19936;-77
2022/08/01 13:56:38;;;;;;;;;;;;;;;;;;4877079;29;19954;-78
2022/08/01 13:59:06;;;;;;;;;;;;;;;;;;4877537;29;20005;-77
2022/08/01 14:01:33;;;;;;;;;;;;;;;;;;4891092;29;19938;-77
2022/08/01 14:04:01;;;;;;;;;;;;;;;;;;4895578;29;19931;-76
2022/08/01 14:06:28;;;;;;;;;;;;;;;;;;4899911;29;19931;-78
2022/08/01 14:08:55;;;;;;;;;;;;;;;;;;4900334;29;19939;-78
2022/08/01 14:11:23;;;;;;;;;;;;;;;;;;4891163;29;19935;-77
2022/08/01 14:13:50;;;;;;;;;;;;;;;;;;4891877;29;20458;-77
2022/08/01 14:16:17;;;;;;;;;;;;;;;;;;4895153;29;20042;-77
2022/08/01 14:18:45;;;;;;;;;;;;;;;;;;4891172;29;19934;-76
2022/08/01 14:21:12;;;;;;;;;;;;;;;;;;4891293;29;20407;-76
2022/08/01 14:23:39;;;;;;;;;;;;;;;;;;4891392;29;20038;-75
2022/08/01 14:26:06;;;;;;;;;;;;;;;;;;4874948;29;19951;-77
2022/08/01 14:28:38;;;;;;;;;;;;;;;;;;4893388;29;19939;-76
2022/08/01 14:31:08;;;;;;;;;;;;;;;;;;4890158;29;20336;-76
2022/08/01 14:33:36;;;;;;;;;;;;;;;;;;4892708;29;19932;-77
2022/08/01 14:36:03;;;;;;;;;;;;;;;;;;4892460;29;20425;-76
2022/08/01 14:38:50;;;;;;;;;;;;;;;;;;4886003;29;19935;-75
2022/08/01 14:41:18;;;;;;;;;;;;;;;;;;4891061;29;19932;-75
2022/08/01 14:43:45;;;;;;;;;;;;;;;;;;4873392;29;20034;-75
2022/08/01 14:46:12;;;;;;;;;;;;;;;;;;4885506;29;19942;-75
2022/08/01 14:48:40;;;;;;;;;;;;;;;;;;4893876;29;19967;-73
2022/08/01 14:51:07;;;;;;;;;;;;;;;;;;4896302;29;19938;-72
2022/08/01 14:53:36;;;;;;;;;;;;;;;;;;4909089;29;19934;-75
2022/08/01 14:56:03;;;;;;;;;;;;;;;;;;4906668;29;19980;-74
2022/08/01 14:58:30;;;;;;;;;;;;;;;;;;4899718;29;19932;-74
2022/08/01 15:00:57;;;;;;;;;;;;;;;;;;4899816;29;19956;-73
2022/08/01 15:03:25;;;;;;;;;;;;;;;;;;4910493;29;19940;-73
2022/08/01 15:05:52;;;;;;;;;;;;;;;;;;4892477;29;19940;-75
2022/08/01 15:08:20;;;;;;;;;;;;;;;;;;4891880;29;20021;-72
2022/08/01 15:10:47;;;;;;;;;;;;;;;;;;4877436;29;19931;-73
2022/08/01 15:13:14;;;;;;;;;;;;;;;;;;4879393;29;19939;-72
2022/08/01 15:15:42;;;;;;;;;;;;;;;;;;4878969;29;19961;-73
2022/08/01 15:18:09;;;;;;;;;;;;;;;;;;4871882;29;19927;-73
2022/08/01 15:20:36;;;;;;;;;;;;;;;;;;4869569;29;20026;-75
2022/08/01 15:23:04;;;;;;;;;;;;;;;;;;4873943;29;19931;-72
2022/08/01 15:25:31;;;;;;;;;;;;;;;;;;4867503;29;19968;-74
2022/08/01 15:28:08;;;;;;;;;;;;;;;;;;4867201;29;20408;-74
2022/08/01 15:30:35;;;;;;;;;;;;;;;;;;4866273;29;19950;-75
2022/08/01 15:33:02;;;;;;;;;;;;;;;;;;4865965;29;20001;-76
2022/08/01 15:35:30;;;;;;;;;;;;;;;;;;4867812;29;20404;-76
2022/08/01 15:37:57;;;;;;;;;;;;;;;;;;4871209;29;19966;-77
2022/08/01 15:40:24;;;;;;;;;;;;;;;;;;4867792;29;20490;-77
2022/08/01 15:42:52;;;;;;;;;;;;;;;;;;4870875;29;19967;-77
2022/08/01 15:45:20;;;;;;;;;;;;;;;;;;4874042;29;20038;-76
2022/08/01 15:48:08;;;;;;;;;;;;;;;;;;4871789;29;19954;-77
2022/08/01 15:50:37;;;;;;;;;;;;;;;;;;4875076;29;19936;-77
2022/08/01 15:53:05;;;;;;;;;;;;;;;;;;4859275;29;19936;-77
2022/08/01 15:55:32;;;;;;;;;;;;;;;;;;4866465;29;19939;-76
2022/08/01 15:58:00;;;;;;;;;;;;;;;;;;4866739;29;19939;-78
2022/08/01 16:00:27;;;;;;;;;;;;;;;;;;4870505;29;19938;-77
2022/08/01 16:02:59;;;;;;;;;;;;;;;;;;4875438;29;20035;-76
2022/08/01 16:05:26;;;;;;;;;;;;;;;;;;4875804;29;19935;-78
2022/08/01 16:07:53;;;;;;;;;;;;;;;;;;4869930;29;20264;-78
2022/08/01 16:10:25;;;;;;;;;;;;;;;;;;4873434;29;19938;-76
2022/08/01 16:12:52;;;;;;;;;;;;;;;;;;4871153;29;20457;-77
2022/08/01 16:15:19;;;;;;;;;;;;;;;;;;4873484;29;19935;-76
2022/08/01 16:17:47;;;;;;;;;;;;;;;;;;4869045;29;19931;-76
2022/08/01 16:20:15;;;;;;;;;;;;;;;;;;4872274;29;19970;-76
2022/08/01 16:22:42;;;;;;;;;;;;;;;;;;4870480;29;19935;-76
2022/08/01 16:25:10;;;;;;;;;;;;;;;;;;4874396;29;20584;-76
2022/08/01 16:27:37;;;;;;;;;;;;;;;;;;4875157;29;20371;-76
2022/08/01 16:30:05;;;;;;;;;;;;;;;;;;4871658;29;20355;-77
2022/08/01 16:32:32;;;;;;;;;;;;;;;;;;4871988;29;19943;-77
2022/08/01 16:35:06;;;;;;;;;;;;;;;;;;4874434;29;19931;-77
2022/08/01 16:37:33;;;;;;;;;;;;;;;;;;4876316;29;19937;-77
2022/08/01 16:40:01;;;;;;;;;;;;;;;;;;4869860;29;19935;-77
2022/08/01 16:42:28;;;;;;;;;;;;;;;;;;4876149;29;20050;-75
2022/08/01 16:44:55;;;;;;;;;;;;;;;;;;4870787;29;19928;-75
2022/08/01 16:47:22;;;;;;;;;;;;;;;;;;4867448;29;19931;-75
2022/08/01 16:49:50;;;;;;;;;;;;;;;;;;4868024;29;19992;-76
2022/08/01 16:52:17;;;;;;;;;;;;;;;;;;4873064;29;19932;-76
2022/08/01 16:54:44;;;;;;;;;;;;;;;;;;4868863;29;19935;-76
2022/08/01 16:57:11;;;;;;;;;;;;;;;;;;4868908;29;19966;-76